Portal, Georgia
Current Conditions -  °F | °C
As of 1:15 PM on Saturday 25 Oct 2014 (Local Time) from KJYL Reporting Station
Clear Clear  
Wind Chill: 25°   Ceiling: Unl
Heat Index: 26°   Visibility: 10mi
Dew Point: 12°   Wind: 7mph
Humidity: 44%   Direction: 360°N
Pressure: 30.03"   Gusts: NA
Location:  32.54°N, 81.93°W
Report Text: KJYL 251715Z AUTO 36006KT 10SM CLR 25/12 A3003 RMK AO2 T02520123
Loading
Personal Weather Stations






























Interactive Weather Map
Tropical Storm Tracking
New forecast layout! Learn more

10-Day Weather Forecast

Advertisements
Track Severe Weather on mobile